createdAt,value
2022-12-04T00:01:50.641Z,5.50
2022-12-04T00:04:20.127Z,5.40
2022-12-04T00:06:54.038Z,5.40
2022-12-04T00:09:20.717Z,5.50
2022-12-04T00:11:50.223Z,5.50
2022-12-04T00:14:19.717Z,5.50
2022-12-04T00:16:50.883Z,5.30
2022-12-04T00:19:20.341Z,5.40
2022-12-04T00:21:52.613Z,5.40
2022-12-04T00:24:22.115Z,5.40
2022-12-04T00:26:53.236Z,5.50
2022-12-04T00:29:22.727Z,5.10
2022-12-04T00:31:52.298Z,5.00
2022-12-04T00:34:23.297Z,5.20
2022-12-04T00:36:52.794Z,5.20
2022-12-04T00:39:22.213Z,5.30
2022-12-04T00:41:51.653Z,5.40
2022-12-04T00:44:21.174Z,5.30
2022-12-04T00:46:50.686Z,5.30
2022-12-04T00:49:20.122Z,5.40
2022-12-04T00:51:51.113Z,5.40
2022-12-04T00:54:20.530Z,5.30
2022-12-04T00:56:49.976Z,5.30
2022-12-04T00:59:19.494Z,5.30
2022-12-04T01:01:48.937Z,5.40
2022-12-04T01:04:18.358Z,5.40
2022-12-04T01:06:49.193Z,5.40
2022-12-04T01:09:20.060Z,5.40
2022-12-04T01:11:49.531Z,5.40
2022-12-04T01:14:18.973Z,5.40
2022-12-04T01:16:49.893Z,5.40
2022-12-04T01:19:19.318Z,5.30
2022-12-04T01:21:49.024Z,5.30
2022-12-04T01:24:18.527Z,5.20
2022-12-04T01:26:48.038Z,5.30
2022-12-04T01:29:17.589Z,5.20
2022-12-04T01:31:47.080Z,5.20
2022-12-04T01:34:16.645Z,5.10
2022-12-04T01:36:46.230Z,5.20
2022-12-04T01:39:15.723Z,5.20
2022-12-04T01:41:45.227Z,5.20
2022-12-04T01:44:24.047Z,5.20
2022-12-04T01:46:56.547Z,5.20
2022-12-04T01:49:31.822Z,4.90
2022-12-04T01:52:10.173Z,4.70
2022-12-04T01:54:42.902Z,4.50
2022-12-04T01:57:24.608Z,4.60
2022-12-04T01:59:59.868Z,4.50
2022-12-04T02:02:32.400Z,4.60
2022-12-04T02:05:03.059Z,4.80
2022-12-04T02:07:33.306Z,4.80
2022-12-04T02:10:04.908Z,4.90
2022-12-04T02:12:46.411Z,4.90
2022-12-04T02:15:35.771Z,5.00
2022-12-04T02:18:11.112Z,5.00
2022-12-04T02:20:46.767Z,5.00
2022-12-04T02:23:31.202Z,5.00
2022-12-04T02:26:20.073Z,4.70
2022-12-04T02:29:12.255Z,4.50
2022-12-04T02:32:05.667Z,4.40
2022-12-04T02:34:35.837Z,4.40
2022-12-04T02:37:08.395Z,4.50
2022-12-04T02:39:42.264Z,4.60
2022-12-04T02:42:17.404Z,4.70
2022-12-04T02:44:49.889Z,4.50
2022-12-04T02:47:22.569Z,4.40
2022-12-04T02:49:55.230Z,4.30
2022-12-04T02:52:28.859Z,4.40
2022-12-04T02:55:08.002Z,4.50
2022-12-04T02:57:37.019Z,4.50
2022-12-04T03:00:09.734Z,4.60
2022-12-04T03:02:52.517Z,4.60
2022-12-04T03:05:26.023Z,4.50
2022-12-04T03:08:01.594Z,4.50
2022-12-04T03:10:34.077Z,4.50
2022-12-04T03:13:04.266Z,4.60
2022-12-04T03:15:36.675Z,4.60
2022-12-04T03:18:09.190Z,4.70
2022-12-04T03:20:40.764Z,4.60
2022-12-04T03:26:00.064Z,4.60
2022-12-04T03:28:32.577Z,4.60
2022-12-04T03:31:05.167Z,4.60
2022-12-04T03:33:43.948Z,4.30
2022-12-04T03:36:19.145Z,4.10
2022-12-04T03:39:00.378Z,3.80
2022-12-04T03:41:52.263Z,4.10
2022-12-04T03:44:30.235Z,4.20
2022-12-04T03:47:08.983Z,4.20
2022-12-04T03:49:47.078Z,4.00
2022-12-04T03:52:37.401Z,4.10
2022-12-04T03:55:16.234Z,4.10
2022-12-04T03:57:48.337Z,4.20
2022-12-04T04:00:22.897Z,4.10
2022-12-04T04:03:01.341Z,4.00
2022-12-04T04:05:33.369Z,4.00
2022-12-04T04:08:23.354Z,3.90
2022-12-04T04:10:58.892Z,4.00
2022-12-04T04:13:55.025Z,3.90
2022-12-04T04:16:45.572Z,3.90
2022-12-04T04:19:35.328Z,3.80
2022-12-04T04:22:25.641Z,3.90
2022-12-04T04:25:07.105Z,3.80
2022-12-04T04:27:36.554Z,3.80
2022-12-04T04:30:09.240Z,3.80
2022-12-04T04:32:47.672Z,3.70
2022-12-04T04:35:23.092Z,3.70
2022-12-04T04:38:18.240Z,3.80
2022-12-04T04:40:50.742Z,3.80
2022-12-04T04:43:23.338Z,3.80
2022-12-04T04:45:55.977Z,3.80
2022-12-04T04:48:31.358Z,3.80
2022-12-04T04:51:02.527Z,3.80
2022-12-04T04:53:38.319Z,3.80
2022-12-04T04:56:08.677Z,3.80
2022-12-04T04:58:38.131Z,3.70
2022-12-04T05:01:10.655Z,3.70
2022-12-04T05:03:40.261Z,3.60
2022-12-04T05:06:09.759Z,3.70
2022-12-04T05:08:39.264Z,3.50
2022-12-04T05:11:11.777Z,3.60
2022-12-04T05:13:41.846Z,3.50
2022-12-04T05:16:16.200Z,3.60
2022-12-04T05:19:03.972Z,3.60
2022-12-04T05:21:34.278Z,3.60
2022-12-04T05:24:03.850Z,3.60
2022-12-04T05:26:33.282Z,3.50
2022-12-04T05:29:02.806Z,3.60
2022-12-04T05:31:32.501Z,3.50
2022-12-04T05:34:02.015Z,3.40
2022-12-04T05:36:31.428Z,3.50
2022-12-04T05:39:00.866Z,3.10
2022-12-04T05:41:30.312Z,3.20
2022-12-04T05:43:59.810Z,2.90
2022-12-04T05:46:29.284Z,3.10
2022-12-04T05:48:58.973Z,3.20
2022-12-04T05:51:28.545Z,2.80
2022-12-04T05:53:57.967Z,3.00
2022-12-04T05:56:27.612Z,3.10
2022-12-04T05:58:57.045Z,3.20
2022-12-04T06:01:26.543Z,3.20
2022-12-04T06:03:56.066Z,3.00
2022-12-04T06:06:26.851Z,2.70
2022-12-04T06:08:58.919Z,2.30
2022-12-04T06:11:34.556Z,2.50
2022-12-04T06:14:06.448Z,2.50
2022-12-04T06:16:39.251Z,2.30
2022-12-04T06:19:12.050Z,2.40
2022-12-04T06:21:43.313Z,2.30
2022-12-04T06:24:16.065Z,2.20
2022-12-04T06:27:11.048Z,2.20
2022-12-04T06:29:17.750Z,2.30
2022-12-04T06:31:47.249Z,2.60
2022-12-04T06:34:16.991Z,2.60
2022-12-04T06:36:46.418Z,2.80
2022-12-04T06:39:18.942Z,2.80
2022-12-04T06:41:47.757Z,2.80
2022-12-04T06:44:17.745Z,2.70
2022-12-04T06:46:48.076Z,2.80
2022-12-04T06:49:19.992Z,2.70
2022-12-04T06:51:49.567Z,2.50
2022-12-04T06:54:19.053Z,2.40
2022-12-04T06:56:50.810Z,2.60
2022-12-04T06:59:20.282Z,2.80
2022-12-04T07:01:49.875Z,2.80
2022-12-04T07:04:19.534Z,3.00
2022-12-04T07:06:48.972Z,2.90
2022-12-04T07:09:19.261Z,2.90
2022-12-04T07:11:48.764Z,3.00
2022-12-04T07:14:18.178Z,3.00
2022-12-04T07:16:47.744Z,2.90
2022-12-04T07:19:17.203Z,3.00
2022-12-04T07:21:46.638Z,2.60
2022-12-04T07:24:18.237Z,2.80
2022-12-04T07:26:48.199Z,2.90
2022-12-04T07:29:17.633Z,2.90
2022-12-04T07:31:47.282Z,2.90
2022-12-04T07:34:16.755Z,3.10
2022-12-04T07:36:46.194Z,3.10
2022-12-04T07:39:15.691Z,3.10
2022-12-04T07:41:45.179Z,3.10
2022-12-04T07:44:15.135Z,3.20
2022-12-04T07:46:44.562Z,3.20
2022-12-04T07:49:14.079Z,3.10
2022-12-04T07:51:43.671Z,3.20
2022-12-04T07:54:13.101Z,3.30
2022-12-04T07:56:42.532Z,3.20
2022-12-04T07:59:11.983Z,3.30
2022-12-04T08:01:41.971Z,3.20
2022-12-04T08:04:12.356Z,3.10
2022-12-04T08:06:42.183Z,3.30
2022-12-04T08:09:11.684Z,3.30
2022-12-04T08:11:41.183Z,3.50
2022-12-04T08:14:13.690Z,3.40
2022-12-04T08:16:48.205Z,3.30
2022-12-04T08:19:15.283Z,3.20
2022-12-04T08:21:44.726Z,3.20
2022-12-04T08:24:15.691Z,3.30
2022-12-04T08:26:45.171Z,3.30
2022-12-04T08:29:14.613Z,3.60
2022-12-04T08:31:44.030Z,4.00
2022-12-04T08:34:14.281Z,4.60
2022-12-04T08:36:43.862Z,5.30
2022-12-04T08:39:13.968Z,5.50
2022-12-04T08:41:43.384Z,5.90
2022-12-04T08:44:12.840Z,6.00
2022-12-04T08:46:42.408Z,6.10
2022-12-04T08:49:12.026Z,5.90
2022-12-04T08:51:41.505Z,6.70
2022-12-04T08:54:13.511Z,7.00
2022-12-04T08:56:44.668Z,7.20
2022-12-04T08:59:15.088Z,7.10
2022-12-04T09:01:44.652Z,7.00
2022-12-04T09:04:14.179Z,7.10
2022-12-04T09:06:43.689Z,7.00
2022-12-04T09:09:13.120Z,6.70
2022-12-04T09:11:44.106Z,6.60
2022-12-04T09:14:13.764Z,6.40
2022-12-04T09:16:43.194Z,5.80
2022-12-04T09:19:12.657Z,5.60
2022-12-04T09:21:42.093Z,5.70
2022-12-04T09:24:11.530Z,5.50
2022-12-04T09:26:41.258Z,5.60
2022-12-04T09:29:12.706Z,5.60
2022-12-04T09:31:42.288Z,5.70
2022-12-04T09:34:11.763Z,5.80
2022-12-04T09:36:41.550Z,5.80
2022-12-04T09:39:12.154Z,5.70
2022-12-04T09:42:01.418Z,5.90
2022-12-04T09:44:42.804Z,5.90
2022-12-04T09:47:24.131Z,5.80
2022-12-04T09:49:59.878Z,5.60
2022-12-04T09:53:01.256Z,5.80
2022-12-04T09:55:36.451Z,6.20
2022-12-04T09:58:09.331Z,6.30
2022-12-04T10:00:42.073Z,6.60
2022-12-04T10:03:23.550Z,6.50
2022-12-04T10:06:11.393Z,6.20
2022-12-04T10:08:43.858Z,7.00
2022-12-04T10:11:32.523Z,8.00
2022-12-04T10:14:19.111Z,8.40
2022-12-04T10:17:11.117Z,8.60
2022-12-04T10:20:13.348Z,8.50
2022-12-04T10:22:57.663Z,9.00
2022-12-04T10:25:29.168Z,9.40
2022-12-04T10:28:04.321Z,9.30
2022-12-04T10:30:36.851Z,9.30
2022-12-04T10:33:27.587Z,9.60
2022-12-04T10:35:57.563Z,9.70
2022-12-04T10:38:33.001Z,9.70
2022-12-04T10:41:08.860Z,10.10
2022-12-04T10:43:43.159Z,9.90
2022-12-04T10:46:15.787Z,9.60
2022-12-04T10:48:48.586Z,8.80
2022-12-04T10:51:21.763Z,9.20
2022-12-04T10:53:50.929Z,9.50
2022-12-04T10:56:26.057Z,9.50
2022-12-04T10:59:04.424Z,9.10
2022-12-04T11:01:36.417Z,9.10
2022-12-04T11:04:09.257Z,8.60
2022-12-04T11:06:39.874Z,8.70
2022-12-04T11:09:11.035Z,9.20
2022-12-04T11:11:40.554Z,9.40
2022-12-04T11:14:19.100Z,9.50
2022-12-04T11:16:51.857Z,8.90
2022-12-04T11:19:30.190Z,8.40
2022-12-04T11:22:17.537Z,8.50
2022-12-04T11:24:56.036Z,8.80
2022-12-04T11:27:34.821Z,8.60
2022-12-04T11:30:10.193Z,8.40
2022-12-04T11:32:42.252Z,8.10
2022-12-04T11:35:20.589Z,7.90
2022-12-04T11:37:56.025Z,8.30
2022-12-04T11:40:27.663Z,8.00
2022-12-04T11:43:02.935Z,8.10
2022-12-04T11:45:33.216Z,8.30
2022-12-04T11:48:05.777Z,8.20
2022-12-04T11:50:38.632Z,8.20
2022-12-04T11:53:14.071Z,7.80
2022-12-04T11:55:46.608Z,7.90
2022-12-04T11:58:22.688Z,7.70
2022-12-04T12:01:01.312Z,7.90
2022-12-04T12:03:33.976Z,7.60
2022-12-04T12:06:14.873Z,7.90
2022-12-04T12:09:11.283Z,8.00
2022-12-04T12:11:43.785Z,7.70
2022-12-04T12:14:25.165Z,7.70
2022-12-04T12:17:00.302Z,7.60
2022-12-04T12:19:33.007Z,7.80
2022-12-04T12:22:11.108Z,7.90
2022-12-04T12:24:52.703Z,8.00
2022-12-04T12:27:40.032Z,7.90
2022-12-04T12:30:23.985Z,7.80
2022-12-04T12:32:56.470Z,7.80
2022-12-04T12:35:34.675Z,7.90
2022-12-04T12:38:13.002Z,7.90
2022-12-04T12:40:45.948Z,7.80
2022-12-04T12:43:18.507Z,8.00
2022-12-04T12:46:08.805Z,7.80
2022-12-04T12:48:47.272Z,7.90
2022-12-04T12:51:36.177Z,8.10
2022-12-04T12:54:20.716Z,8.10
2022-12-04T12:56:53.355Z,8.00
2022-12-04T12:59:25.901Z,8.10
2022-12-04T13:02:02.546Z,8.10
2022-12-04T13:04:47.586Z,8.20
2022-12-04T13:07:23.035Z,8.10
2022-12-04T13:09:55.724Z,8.00
2022-12-04T13:12:27.296Z,7.90
2022-12-04T13:14:56.749Z,7.90
2022-12-04T13:17:35.192Z,7.70
2022-12-04T13:20:10.949Z,7.70
2022-12-04T13:22:43.525Z,7.70
2022-12-04T13:25:21.974Z,7.60
2022-12-04T13:28:15.561Z,7.70
2022-12-04T13:30:45.931Z,7.70
2022-12-04T13:33:32.955Z,7.70
2022-12-04T13:36:11.496Z,7.70
2022-12-04T13:38:53.685Z,7.60
2022-12-04T13:41:26.032Z,7.60
2022-12-04T13:44:00.620Z,7.60
2022-12-04T13:46:35.382Z,7.60
2022-12-04T13:49:24.806Z,7.60
2022-12-04T13:51:56.079Z,7.60
2022-12-04T13:54:28.573Z,7.60
2022-12-04T13:57:01.207Z,7.50
2022-12-04T13:59:36.208Z,7.50
2022-12-04T14:02:25.088Z,7.60
2022-12-04T14:05:06.058Z,7.70
2022-12-04T14:07:38.601Z,7.60
2022-12-04T14:10:11.675Z,7.60
2022-12-04T14:12:41.545Z,7.60
2022-12-04T14:15:25.968Z,7.60
2022-12-04T14:18:16.582Z,7.70
2022-12-04T14:20:46.159Z,7.70
2022-12-04T14:23:25.485Z,7.60
2022-12-04T14:25:57.962Z,7.70
2022-12-04T14:28:30.438Z,7.80
2022-12-04T14:31:08.924Z,7.60
2022-12-04T14:33:47.171Z,7.70
2022-12-04T14:36:25.763Z,7.70
2022-12-04T14:38:58.271Z,7.80
2022-12-04T14:41:28.317Z,7.70
2022-12-04T14:43:58.278Z,7.70
2022-12-04T14:46:30.888Z,7.60
2022-12-04T14:49:36.455Z,7.70
2022-12-04T14:52:17.866Z,7.70
2022-12-04T14:55:00.788Z,7.70
2022-12-04T14:57:37.030Z,7.50
2022-12-04T15:00:09.100Z,7.50
2022-12-04T15:02:44.326Z,7.50
2022-12-04T15:05:22.606Z,7.50
2022-12-04T15:07:55.140Z,7.50
2022-12-04T15:10:45.673Z,7.50
2022-12-04T15:13:21.469Z,7.50
2022-12-04T15:15:48.463Z,7.40
2022-12-04T15:18:19.161Z,7.40
2022-12-04T15:20:56.052Z,7.40
2022-12-04T15:23:33.835Z,7.40
2022-12-04T15:26:09.315Z,7.40
2022-12-04T15:28:58.493Z,7.40
2022-12-04T15:31:33.355Z,7.30
2022-12-04T15:34:05.444Z,7.30
2022-12-04T15:36:53.000Z,7.40
2022-12-04T15:39:28.467Z,7.30
2022-12-04T15:42:10.220Z,7.20
2022-12-04T15:44:39.680Z,7.20
2022-12-04T15:47:18.195Z,7.10
2022-12-04T15:49:47.844Z,7.10
2022-12-04T15:52:25.501Z,7.00
2022-12-04T15:55:03.215Z,7.00
2022-12-04T15:57:35.249Z,7.00
2022-12-04T16:00:07.785Z,6.90
2022-12-04T16:02:40.216Z,6.90
2022-12-04T16:05:15.548Z,6.80
2022-12-04T16:07:59.581Z,6.80
2022-12-04T16:10:34.632Z,6.70
2022-12-04T16:13:06.094Z,6.70
2022-12-04T16:15:40.865Z,6.70
2022-12-04T16:18:13.717Z,6.60
2022-12-04T16:20:43.247Z,6.60
2022-12-04T16:23:12.986Z,6.60
2022-12-04T16:25:42.433Z,6.50
2022-12-04T16:28:12.234Z,6.40
2022-12-04T16:30:41.968Z,6.40
2022-12-04T16:33:16.113Z,6.30
2022-12-04T16:35:45.710Z,6.30
2022-12-04T16:38:18.912Z,6.20
2022-12-04T16:40:49.346Z,6.20
2022-12-04T16:43:18.957Z,6.20
2022-12-04T16:45:54.239Z,6.10
2022-12-04T16:48:23.733Z,6.10
2022-12-04T16:50:53.314Z,6.10
2022-12-04T16:53:23.949Z,6.00
2022-12-04T16:55:54.541Z,6.00
2022-12-04T16:58:23.979Z,5.90
2022-12-04T17:00:58.930Z,6.00
2022-12-04T17:03:34.009Z,5.90
2022-12-04T17:06:03.435Z,5.90
2022-12-04T17:08:33.479Z,5.90
2022-12-04T17:11:03.030Z,5.90
2022-12-04T17:13:32.471Z,5.80
2022-12-04T17:16:02.001Z,5.80
2022-12-04T17:18:31.651Z,5.80
2022-12-04T17:21:02.616Z,5.70
2022-12-04T17:23:32.088Z,5.70
2022-12-04T17:26:07.272Z,5.60
2022-12-04T17:28:37.291Z,5.60
2022-12-04T17:31:15.716Z,5.60
2022-12-04T17:33:46.495Z,5.50
2022-12-04T17:36:18.741Z,5.50
2022-12-04T17:38:48.376Z,5.50
2022-12-04T17:41:17.802Z,5.40
2022-12-04T17:43:47.823Z,5.40
2022-12-04T17:46:21.607Z,5.40
2022-12-04T17:48:51.513Z,5.30
2022-12-04T17:51:23.366Z,5.40
2022-12-04T17:53:53.513Z,5.30
2022-12-04T17:56:25.326Z,5.30
2022-12-04T17:58:55.098Z,5.30
2022-12-04T18:01:27.797Z,5.20
2022-12-04T18:04:00.518Z,5.30
2022-12-04T18:06:33.040Z,5.20
2022-12-04T18:09:04.227Z,5.20
2022-12-04T18:11:36.616Z,5.20
2022-12-04T18:14:12.305Z,5.00
2022-12-04T18:16:43.690Z,5.10
2022-12-04T18:19:15.718Z,5.00
2022-12-04T18:21:45.180Z,5.00
2022-12-04T18:24:15.347Z,5.00
2022-12-04T18:26:48.121Z,5.00
2022-12-04T18:29:20.641Z,5.00
2022-12-04T18:31:51.370Z,5.00
2022-12-04T18:34:23.467Z,5.00
2022-12-04T18:36:52.955Z,5.00
2022-12-04T18:39:25.035Z,4.90
2022-12-04T18:41:57.131Z,4.90
2022-12-04T18:44:27.330Z,4.80
2022-12-04T18:46:58.421Z,4.80
2022-12-04T18:49:27.892Z,4.80
2022-12-04T18:51:59.905Z,4.70
2022-12-04T18:54:29.367Z,4.70
2022-12-04T18:56:58.807Z,4.70
2022-12-04T18:59:29.504Z,4.70
2022-12-04T19:01:59.001Z,4.60
2022-12-04T19:04:28.463Z,4.60
2022-12-04T19:06:57.999Z,4.60
2022-12-04T19:10:09.569Z,4.60
2022-12-04T19:12:01.344Z,4.60
2022-12-04T19:14:30.838Z,4.50
2022-12-04T19:17:00.337Z,4.50
2022-12-04T19:19:31.829Z,4.50
2022-12-04T19:22:02.358Z,4.50
2022-12-04T19:24:32.070Z,4.40
2022-12-04T19:27:03.144Z,4.40
2022-12-04T19:29:32.670Z,4.40
2022-12-04T19:32:02.220Z,4.30
2022-12-04T19:34:31.786Z,4.30
2022-12-04T19:37:01.314Z,4.20
2022-12-04T19:39:30.754Z,4.20
2022-12-04T19:42:00.195Z,4.20
2022-12-04T19:47:00.790Z,4.20
2022-12-04T19:49:30.302Z,4.20
2022-12-04T19:51:59.735Z,4.20
2022-12-04T19:54:30.678Z,4.10
2022-12-04T19:57:01.557Z,4.10
2022-12-04T19:59:36.429Z,4.10
2022-12-04T20:02:02.883Z,4.00
2022-12-04T20:04:32.404Z,4.00
2022-12-04T20:07:01.841Z,4.00
2022-12-04T20:09:31.337Z,4.00
2022-12-04T20:12:00.879Z,4.00
2022-12-04T20:14:30.298Z,3.90
2022-12-04T20:17:01.467Z,3.90
2022-12-04T20:19:30.964Z,3.90
2022-12-04T20:22:00.400Z,3.90
2022-12-04T20:24:30.328Z,3.80
2022-12-04T20:26:59.861Z,3.80
2022-12-04T20:29:29.290Z,3.80
2022-12-04T20:31:58.774Z,3.80
2022-12-04T20:34:28.251Z,3.80
2022-12-04T20:36:59.351Z,3.80
2022-12-04T20:39:29.966Z,3.70
2022-12-04T20:42:01.106Z,3.60
2022-12-04T20:44:30.570Z,3.30
2022-12-04T20:47:00.080Z,3.20
2022-12-04T20:49:29.500Z,3.30
2022-12-04T20:51:58.964Z,3.50
2022-12-04T20:54:28.384Z,3.50
2022-12-04T20:56:57.886Z,3.60
2022-12-04T20:59:27.439Z,3.60
2022-12-04T21:01:56.986Z,3.40
2022-12-04T21:04:26.470Z,3.50
2022-12-04T21:06:56.227Z,3.50
2022-12-04T21:09:26.742Z,3.50
2022-12-04T21:11:56.872Z,3.60
2022-12-04T21:14:47.827Z,3.60
2022-12-04T21:17:20.494Z,3.50
2022-12-04T21:19:51.585Z,3.50
2022-12-04T21:22:21.366Z,3.60
2022-12-04T21:24:50.808Z,3.50
2022-12-04T21:27:21.339Z,3.50
2022-12-04T21:29:51.434Z,3.50
2022-12-04T21:32:21.469Z,3.40
2022-12-04T21:34:52.152Z,3.40
2022-12-04T21:37:21.658Z,3.40
2022-12-04T21:39:51.174Z,3.50
2022-12-04T21:42:33.380Z,3.40
2022-12-04T21:45:06.197Z,3.40
2022-12-04T21:47:37.842Z,3.40
2022-12-04T21:50:08.767Z,3.40
2022-12-04T21:52:38.232Z,3.30
2022-12-04T21:55:07.798Z,3.10
2022-12-04T21:57:37.221Z,3.00
2022-12-04T22:00:08.111Z,3.20
2022-12-04T22:02:38.018Z,3.20
2022-12-04T22:05:09.656Z,3.20
2022-12-04T22:07:39.185Z,3.20
2022-12-04T22:10:11.037Z,3.20
2022-12-04T22:12:49.556Z,3.20
2022-12-04T22:15:12.167Z,3.10
2022-12-04T22:17:41.662Z,3.10
2022-12-04T22:20:11.343Z,3.00
2022-12-04T22:22:40.794Z,2.80
2022-12-04T22:25:10.720Z,2.60
2022-12-04T22:27:40.176Z,2.60
2022-12-04T22:30:10.150Z,2.80
2022-12-04T22:32:39.573Z,2.80
2022-12-04T22:35:09.476Z,3.00
2022-12-04T22:37:44.060Z,3.00
2022-12-04T22:40:12.160Z,2.70
2022-12-04T22:42:42.531Z,2.50
2022-12-04T22:45:12.925Z,2.50
2022-12-04T22:47:42.561Z,2.50
2022-12-04T22:50:13.290Z,2.50
2022-12-04T22:52:42.827Z,2.50
2022-12-04T22:55:12.820Z,2.40
2022-12-04T22:57:42.302Z,2.60
2022-12-04T23:00:12.862Z,2.70
2022-12-04T23:02:42.397Z,2.70
2022-12-04T23:05:11.862Z,2.60
2022-12-04T23:07:41.429Z,2.50
2022-12-04T23:10:11.061Z,2.30
2022-12-04T23:12:40.494Z,2.20
2022-12-04T23:15:10.263Z,2.30
2022-12-04T23:17:39.724Z,2.20
2022-12-04T23:20:10.301Z,2.40
2022-12-04T23:22:40.372Z,2.50
2022-12-04T23:25:09.946Z,2.60
2022-12-04T23:27:39.391Z,2.40
2022-12-04T23:30:10.727Z,2.50
2022-12-04T23:32:40.251Z,2.50
2022-12-04T23:35:09.961Z,2.60
2022-12-04T23:37:39.404Z,2.50
2022-12-04T23:40:09.755Z,2.60
2022-12-04T23:42:39.301Z,2.60
2022-12-04T23:45:09.573Z,2.50
2022-12-04T23:47:39.003Z,2.40
2022-12-04T23:50:08.870Z,2.40
2022-12-04T23:52:38.297Z,2.60
2022-12-04T23:55:09.331Z,2.60
2022-12-04T23:57:38.768Z,2.60
